Time;durP1;ratioP1;P1;durP2;ratioP2;P2;SDS_P1;SDS_P2;PMS_P1;PMS_P2;Temp;Humidity;BMP_temperature;BMP_pressure;BME280_temperature;BME280_humidity;BME280_pressure;Samples;Min_cycle;Max_cycle;Signal;HPM_P1;HPM_P2
2022/10/27 00:02:53;;;;;;;7.80;3.67;;;19.90;63.80;;;;;;6106338;29;20032;-76
2022/10/27 00:05:53;;;;;;;12.95;3.47;;;19.90;63.90;;;;;;6094565;29;20024;-75
2022/10/27 00:08:54;;;;;;;12.65;3.50;;;19.90;64.00;;;;;;6094138;29;20029;-76
2022/10/27 00:11:55;;;;;;;11.77;3.78;;;19.80;64.10;;;;;;6096990;29;20438;-76
2022/10/27 00:14:56;;;;;;;10.45;3.70;;;19.80;64.30;;;;;;6103776;29;20039;-76
2022/10/27 00:17:57;;;;;;;10.50;3.50;;;19.80;64.30;;;;;;6102027;29;20056;-76
2022/10/27 00:21:05;;;;;;;12.88;3.55;;;19.70;64.40;;;;;;6101583;29;20350;-75
2022/10/27 00:24:06;;;;;;;10.55;3.80;;;19.70;64.40;;;;;;6098579;29;20119;-76
2022/10/27 00:27:07;;;;;;;17.77;3.97;;;19.70;64.40;;;;;;6116492;29;20032;-76
2022/10/27 00:30:09;;;;;;;8.60;3.30;;;19.70;64.60;;;;;;6100449;29;20569;-75
2022/10/27 00:33:10;;;;;;;13.32;3.88;;;19.70;64.60;;;;;;6094938;29;20091;-76
2022/10/27 00:36:20;;;;;;;10.50;3.15;;;19.70;64.60;;;;;;6108717;29;20044;-76
2022/10/27 00:39:21;;;;;;;11.82;3.03;;;19.70;64.60;;;;;;6085609;29;20040;-75
2022/10/27 00:42:21;;;;;;;7.25;3.35;;;19.70;64.50;;;;;;6075898;29;20076;-76
2022/10/27 00:45:22;;;;;;;16.13;3.78;;;19.60;64.50;;;;;;6104890;29;20069;-76
2022/10/27 00:48:24;;;;;;;13.10;3.40;;;19.60;64.50;;;;;;6101712;29;20107;-76
2022/10/27 00:51:25;;;;;;;10.85;3.35;;;19.60;64.60;;;;;;6103041;29;20107;-75
2022/10/27 00:54:31;;;;;;;21.88;3.83;;;19.60;64.60;;;;;;6102147;29;20088;-76
2022/10/27 00:57:34;;;;;;;10.38;3.40;;;19.60;64.60;;;;;;6103143;29;20028;-76
2022/10/27 01:00:40;;;;;;;15.80;3.13;;;19.60;64.70;;;;;;6082454;29;20051;-77
2022/10/27 01:03:42;;;;;;;13.90;3.53;;;19.60;64.80;;;;;;6109653;29;20054;-77
2022/10/27 01:06:43;;;;;;;8.30;3.70;;;19.50;64.70;;;;;;6101281;29;20051;-77
2022/10/27 01:09:45;;;;;;;14.45;3.80;;;19.50;64.70;;;;;;6088543;29;20032;-77
2022/10/27 01:12:46;;;;;;;11.88;3.05;;;19.50;64.90;;;;;;6100600;29;20040;-77
2022/10/27 01:16:06;;;;;;;14.25;3.35;;;19.40;65.00;;;;;;6099360;29;20032;-77
2022/10/27 01:19:34;;;;;;;12.90;3.78;;;19.40;65.20;;;;;;6095230;29;20068;-76
2022/10/27 01:22:38;;;;;;;15.65;4.07;;;19.40;65.30;;;;;;6089346;29;20058;-76
2022/10/27 01:25:57;;;;;;;14.52;3.60;;;19.40;65.40;;;;;;6087828;29;20458;-77
2022/10/27 01:29:12;;;;;;;15.85;3.75;;;19.30;65.50;;;;;;6099898;29;20036;-77
2022/10/27 01:32:34;;;;;;;12.10;3.83;;;19.30;65.60;;;;;;6099511;29;20394;-77
2022/10/27 01:36:06;;;;;;;9.52;3.80;;;19.30;65.70;;;;;;6099280;29;20036;-76
2022/10/27 01:39:20;;;;;;;15.48;3.85;;;19.20;65.90;;;;;;6097867;29;20032;-77
2022/10/27 01:42:40;;;;;;;17.40;3.67;;;19.20;65.90;;;;;;6095688;29;20175;-76
2022/10/27 01:45:42;;;;;;;7.95;2.83;;;19.20;65.90;;;;;;6090809;29;20040;-76
2022/10/27 01:48:44;;;;;;;5.00;3.45;;;19.10;65.90;;;;;;6114625;29;20403;-77
2022/10/27 01:51:45;;;;;;;15.18;4.45;;;19.10;65.90;;;;;;6098176;29;20040;-76
2022/10/27 01:54:45;;;;;;;8.38;3.20;;;19.10;66.10;;;;;;6110728;29;20350;-75
2022/10/27 01:58:29;;;;;;;10.30;3.22;;;19.00;66.00;;;;;;6096526;29;20067;-75
2022/10/27 02:02:02;;;;;;;11.98;2.88;;;19.00;66.00;;;;;;6095076;29;20036;-76
2022/10/27 02:05:50;;;;;;;9.50;3.47;;;18.90;65.90;;;;;;6093515;29;20040;-75
2022/10/27 02:09:02;;;;;;;11.82;3.40;;;18.80;66.00;;;;;;5995058;29;20040;-76
2022/10/27 02:12:10;;;;;;;8.77;3.67;;;18.70;66.20;;;;;;5986416;29;20034;-75
2022/10/27 02:15:24;;;;;;;12.80;3.67;;;18.60;66.30;;;;;;6004900;29;20057;-76
2022/10/27 02:18:29;;;;;;;10.70;3.00;;;18.60;66.50;;;;;;6016267;29;20539;-76
2022/10/27 02:21:33;;;;;;;5.75;2.92;;;18.60;66.70;;;;;;6011127;29;20034;-76
2022/10/27 02:24:34;;;;;;;12.75;3.83;;;18.50;66.90;;;;;;6013468;29;20041;-77
2022/10/27 02:27:43;;;;;;;9.55;3.70;;;18.50;67.00;;;;;;6007322;29;20049;-76
2022/10/27 02:30:45;;;;;;;15.98;3.97;;;18.50;67.20;;;;;;6005486;29;20045;-76
2022/10/27 02:33:48;;;;;;;13.20;3.45;;;18.50;67.20;;;;;;6016148;29;20416;-76
2022/10/27 02:36:49;;;;;;;5.45;3.33;;;18.50;67.30;;;;;;6003961;29;20042;-76
2022/10/27 02:39:50;;;;;;;16.40;3.72;;;18.40;67.40;;;;;;5978326;29;20046;-76
2022/10/27 02:42:50;;;;;;;9.05;3.50;;;18.40;67.40;;;;;;6006897;29;20077;-76
2022/10/27 02:45:52;;;;;;;7.18;3.50;;;18.40;67.60;;;;;;6082849;29;20040;-75
2022/10/27 02:48:53;;;;;;;15.23;3.58;;;18.40;68.60;;;;;;6102121;29;20036;-75
2022/10/27 02:51:54;;;;;;;10.20;3.65;;;18.40;67.80;;;;;;6097697;29;20038;-75
2022/10/27 02:54:55;;;;;;;10.45;3.58;;;18.30;67.80;;;;;;6084681;29;20059;-76
2022/10/27 02:57:55;;;;;;;16.80;3.65;;;18.30;67.90;;;;;;6096780;29;20090;-75
2022/10/27 03:00:56;;;;;;;14.25;3.90;;;18.30;68.10;;;;;;6096566;29;20051;-75
2022/10/27 03:03:57;;;;;;;14.75;4.07;;;18.20;68.20;;;;;;6092217;29;20032;-75
2022/10/27 03:06:58;;;;;;;8.27;3.53;;;18.20;68.20;;;;;;6101396;29;20036;-75
2022/10/27 03:09:59;;;;;;;10.10;3.20;;;18.20;68.30;;;;;;6096293;29;20131;-76
2022/10/27 03:12:59;;;;;;;16.75;3.58;;;18.20;68.50;;;;;;6100572;29;20469;-76
2022/10/27 03:16:00;;;;;;;10.25;3.92;;;18.10;68.40;;;;;;6103821;29;20122;-76
2022/10/27 03:19:01;;;;;;;13.55;4.13;;;18.10;69.20;;;;;;6096169;29;20410;-76
2022/10/27 03:22:02;;;;;;;29.05;4.15;;;18.10;68.50;;;;;;6099372;29;20119;-76
2022/10/27 03:25:03;;;;;;;13.85;3.83;;;18.10;68.50;;;;;;6098096;29;20043;-76
2022/10/27 03:28:04;;;;;;;7.82;3.67;;;18.10;68.40;;;;;;6102813;29;20406;-76
2022/10/27 03:31:05;;;;;;;8.18;3.40;;;18.10;68.40;;;;;;6087135;29;20050;-76
2022/10/27 03:34:06;;;;;;;18.25;4.00;;;18.10;68.30;;;;;;6100701;29;20028;-76
2022/10/27 03:37:06;;;;;;;16.48;3.97;;;18.20;68.20;;;;;;6103874;29;20046;-76
2022/10/27 03:40:08;;;;;;;16.83;4.07;;;18.20;68.20;;;;;;6102833;29;20064;-76
2022/10/27 03:43:10;;;;;;;15.15;3.50;;;18.20;68.10;;;;;;6111836;29;20054;-75
2022/10/27 03:46:11;;;;;;;11.73;3.50;;;18.20;68.10;;;;;;6108244;29;20117;-76
2022/10/27 03:49:12;;;;;;;15.98;3.53;;;18.10;68.10;;;;;;6097431;29;20048;-76
2022/10/27 03:52:13;;;;;;;15.85;3.67;;;18.10;68.10;;;;;;6091706;29;20055;-76
2022/10/27 03:55:14;;;;;;;17.67;4.05;;;18.10;68.10;;;;;;6098374;29;20043;-76
2022/10/27 03:58:17;;;;;;;7.60;3.53;;;18.00;68.10;;;;;;6101997;29;20064;-76
2022/10/27 04:01:18;;;;;;;20.83;3.65;;;18.00;68.30;;;;;;6093016;29;20125;-77
2022/10/27 04:04:19;;;;;;;12.02;3.72;;;18.00;68.40;;;;;;6100228;29;20068;-77
2022/10/27 04:07:19;;;;;;;9.70;3.83;;;17.90;68.50;;;;;;6099966;29;20036;-77
2022/10/27 04:10:20;;;;;;;12.05;4.00;;;17.90;68.60;;;;;;6100671;29;20040;-76
2022/10/27 04:13:21;;;;;;;11.57;4.03;;;17.90;68.70;;;;;;6092518;29;20036;-77
2022/10/27 04:16:22;;;;;;;14.27;3.25;;;17.80;68.70;;;;;;6101471;29;20040;-77
2022/10/27 04:19:23;;;;;;;17.58;4.03;;;17.80;68.70;;;;;;6101720;29;20486;-77
2022/10/27 04:22:24;;;;;;;22.35;4.10;;;17.80;68.80;;;;;;6101437;29;20123;-77
2022/10/27 04:25:25;;;;;;;21.92;3.85;;;17.80;68.90;;;;;;6101429;29;20044;-76
2022/10/27 04:28:26;;;;;;;23.38;4.03;;;17.80;68.90;;;;;;6104445;29;20472;-76
2022/10/27 04:31:27;;;;;;;27.00;4.43;;;17.80;68.70;;;;;;6101118;29;20044;-76
2022/10/27 04:34:29;;;;;;;18.25;4.15;;;17.70;68.70;;;;;;6100511;29;20051;-77
2022/10/27 04:37:30;;;;;;;12.43;4.05;;;17.70;68.80;;;;;;6098099;29;20048;-77
2022/10/27 04:40:30;;;;;;;13.23;3.45;;;17.70;68.80;;;;;;6104626;29;20036;-76
2022/10/27 04:43:31;;;;;;;18.02;3.95;;;17.70;68.80;;;;;;6100208;29;20038;-76
2022/10/27 04:46:32;;;;;;;18.73;4.63;;;17.70;68.80;;;;;;6112949;29;20036;-76
2022/10/27 04:49:33;;;;;;;6.88;3.45;;;17.70;68.80;;;;;;6109124;29;20092;-76
2022/10/27 04:52:34;;;;;;;7.57;3.70;;;17.60;68.80;;;;;;6070591;29;20033;-76
2022/10/27 04:55:35;;;;;;;13.32;4.03;;;17.70;68.90;;;;;;6097081;29;20036;-76
2022/10/27 04:58:35;;;;;;;7.50;3.75;;;17.70;69.00;;;;;;6094694;29;20032;-76
2022/10/27 05:01:37;;;;;;;10.27;3.97;;;17.60;69.00;;;;;;6113560;29;20055;-76
2022/10/27 05:04:38;;;;;;;24.58;4.50;;;17.60;69.00;;;;;;6091615;29;20043;-76
2022/10/27 05:07:39;;;;;;;14.20;3.72;;;17.60;69.10;;;;;;6101011;29;20040;-74
2022/10/27 05:10:40;;;;;;;9.15;3.72;;;17.60;69.20;;;;;;6089924;29;20123;-76
2022/10/27 05:13:40;;;;;;;10.48;3.53;;;17.50;69.20;;;;;;6100435;29;20040;-77
2022/10/27 05:16:41;;;;;;;9.30;3.63;;;17.60;69.20;;;;;;6098714;29;20124;-77
2022/10/27 05:19:42;;;;;;;12.77;3.53;;;17.50;69.20;;;;;;6070605;29;20096;-76
2022/10/27 05:22:43;;;;;;;11.57;4.20;;;17.50;69.20;;;;;;6099034;29;20461;-77
2022/10/27 05:25:44;;;;;;;18.42;4.15;;;17.50;69.20;;;;;;6104143;29;20354;-77
2022/10/27 05:28:46;;;;;;;13.13;4.07;;;17.50;69.10;;;;;;6098953;29;20485;-77
2022/10/27 05:31:47;;;;;;;14.27;3.85;;;17.50;69.00;;;;;;6100110;29;20032;-76
2022/10/27 05:34:48;;;;;;;18.98;3.50;;;17.50;68.80;;;;;;6110041;29;20047;-76
2022/10/27 05:37:49;;;;;;;20.23;3.88;;;17.50;68.80;;;;;;6100340;29;20031;-76
2022/10/27 05:40:55;;;;;;;16.83;4.18;;;17.50;68.80;;;;;;6099668;29;20433;-77
2022/10/27 05:43:56;;;;;;;13.70;3.75;;;17.40;68.80;;;;;;6103919;29;20119;-77
2022/10/27 05:46:56;;;;;;;10.55;3.92;;;17.50;68.80;;;;;;6099561;29;20047;-77
2022/10/27 05:49:57;;;;;;;7.65;3.85;;;17.40;68.60;;;;;;6113199;29;20360;-76
2022/10/27 05:52:58;;;;;;;16.13;3.58;;;17.40;68.60;;;;;;6106978;29;20043;-76
2022/10/27 05:55:59;;;;;;;13.18;3.72;;;17.30;68.80;;;;;;6100027;29;20048;-76
2022/10/27 05:59:00;;;;;;;9.10;3.92;;;17.30;68.90;;;;;;6088971;29;20044;-76
2022/10/27 06:02:01;;;;;;;17.98;3.60;;;17.20;69.00;;;;;;6093610;29;20032;-76
2022/10/27 06:05:02;;;;;;;10.10;3.45;;;17.10;69.10;;;;;;6100942;29;20040;-76
2022/10/27 06:08:04;;;;;;;16.80;3.70;;;17.20;69.20;;;;;;6100424;29;20043;-75
2022/10/27 06:11:05;;;;;;;14.38;3.47;;;17.20;69.20;;;;;;6099404;29;20032;-76
2022/10/27 06:14:06;;;;;;;12.45;3.65;;;17.10;69.20;;;;;;6100555;29;20115;-76
2022/10/27 06:17:08;;;;;;;13.43;3.35;;;17.10;69.40;;;;;;6100424;29;20418;-77
2022/10/27 06:20:09;;;;;;;22.08;3.72;;;17.10;69.60;;;;;;6098101;29;20107;-76
2022/10/27 06:23:10;;;;;;;10.05;3.92;;;17.00;69.70;;;;;;6094821;29;20039;-76
2022/10/27 06:26:11;;;;;;;11.45;3.85;;;17.10;69.70;;;;;;6112909;29;20103;-75
2022/10/27 06:29:11;;;;;;;17.42;4.45;;;17.10;69.70;;;;;;6089568;29;20103;-77
2022/10/27 06:32:12;;;;;;;11.20;3.78;;;17.10;69.70;;;;;;6099822;29;20518;-76
2022/10/27 06:35:13;;;;;;;20.90;4.93;;;17.10;69.70;;;;;;6099147;29;20110;-77
2022/10/27 06:38:15;;;;;;;14.38;3.95;;;17.20;69.70;;;;;;6115706;29;20047;-78
2022/10/27 06:41:16;;;;;;;7.78;3.92;;;17.20;69.60;;;;;;6096602;29;20047;-77
2022/10/27 06:44:17;;;;;;;21.98;4.80;;;17.20;69.50;;;;;;6089245;29;20028;-77
2022/10/27 06:47:18;;;;;;;16.20;4.10;;;17.30;69.40;;;;;;6100681;29;20043;-77
2022/10/27 06:50:19;;;;;;;17.88;4.03;;;17.30;69.30;;;;;;6101446;29;20322;-77
2022/10/27 06:53:19;;;;;;;17.70;3.75;;;17.30;69.30;;;;;;6101954;29;20051;-77
2022/10/27 06:56:21;;;;;;;21.77;4.38;;;17.40;69.20;;;;;;6101973;29;20028;-77
2022/10/27 06:59:21;;;;;;;18.42;4.88;;;17.40;69.00;;;;;;6103626;29;20227;-77
2022/10/27 07:02:24;;;;;;;17.25;4.68;;;17.40;68.80;;;;;;6103125;29;20053;-77
2022/10/27 07:05:26;;;;;;;11.55;4.00;;;17.40;68.70;;;;;;6104408;29;20084;-77
2022/10/27 07:08:26;;;;;;;12.25;3.38;;;17.50;68.70;;;;;;6105733;29;20114;-76
2022/10/27 07:11:27;;;;;;;14.48;3.65;;;17.50;68.60;;;;;;6106035;29;20032;-76
2022/10/27 07:14:28;;;;;;;10.30;4.10;;;17.50;68.50;;;;;;6103555;29;20028;-77
2022/10/27 07:17:29;;;;;;;16.92;3.75;;;17.50;68.50;;;;;;6103636;29;20055;-78
2022/10/27 07:20:32;;;;;;;15.77;3.88;;;17.50;68.50;;;;;;6100271;29;20032;-78
2022/10/27 07:23:33;;;;;;;15.82;4.68;;;17.60;68.60;;;;;;6103419;29;20032;-77
2022/10/27 07:26:33;;;;;;;16.80;4.28;;;17.60;68.40;;;;;;6102831;29;20039;-77
2022/10/27 07:29:34;;;;;;;15.88;4.88;;;17.70;68.30;;;;;;6103574;29;20457;-77
2022/10/27 07:32:35;;;;;;;17.35;5.05;;;17.70;68.00;;;;;;6103247;29;20030;-77
2022/10/27 07:35:36;;;;;;;11.90;3.80;;;17.80;67.90;;;;;;6102596;29;20411;-75
2022/10/27 07:38:38;;;;;;;16.33;4.55;;;17.80;67.80;;;;;;6095987;29;20077;-76
2022/10/27 07:41:38;;;;;;;23.50;4.68;;;17.80;67.60;;;;;;6115366;29;20461;-76
2022/10/27 07:44:39;;;;;;;15.70;4.32;;;17.90;67.60;;;;;;6091090;29;20135;-76
2022/10/27 07:47:45;;;;;;;11.32;3.85;;;17.90;67.50;;;;;;6097988;29;20058;-76
2022/10/27 07:50:45;;;;;;;15.57;4.53;;;18.00;67.20;;;;;;6098268;29;20124;-77
2022/10/27 07:53:49;;;;;;;15.15;3.95;;;18.10;67.00;;;;;;6104373;29;20043;-77
2022/10/27 07:56:50;;;;;;;13.73;4.28;;;18.20;66.90;;;;;;6102409;29;20067;-76
2022/10/27 07:59:51;;;;;;;20.55;4.43;;;18.20;66.60;;;;;;6088099;29;20381;-76
2022/10/27 08:02:51;;;;;;;19.27;4.22;;;18.30;66.40;;;;;;6104145;29;20052;-76
2022/10/27 08:05:52;;;;;;;21.52;4.28;;;18.40;66.30;;;;;;6082963;29;20072;-78
2022/10/27 08:08:53;;;;;;;12.52;3.88;;;18.50;66.10;;;;;;6102614;29;20036;-77
2022/10/27 08:11:54;;;;;;;12.90;3.90;;;18.60;65.80;;;;;;6092414;29;20099;-77
2022/10/27 08:14:55;;;;;;;23.10;4.78;;;18.70;65.70;;;;;;6067724;29;20036;-76
2022/10/27 08:18:00;;;;;;;13.30;4.63;;;18.80;65.10;;;;;;6100938;29;20051;-76
2022/10/27 08:21:04;;;;;;;18.65;4.50;;;18.90;64.70;;;;;;6098685;29;20055;-76
2022/10/27 08:24:05;;;;;;;16.40;3.75;;;19.00;64.40;;;;;;6086468;29;20028;-75
2022/10/27 08:27:06;;;;;;;18.15;3.85;;;19.00;64.40;;;;;;6102337;29;20038;-76
2022/10/27 08:30:09;;;;;;;20.10;4.25;;;19.00;64.40;;;;;;6104140;29;20084;-76
2022/10/27 08:33:10;;;;;;;22.85;4.50;;;19.20;64.50;;;;;;6102278;29;20020;-77
2022/10/27 08:36:11;;;;;;;16.27;4.47;;;19.30;64.30;;;;;;6113440;29;20072;-76
2022/10/27 08:39:12;;;;;;;11.20;3.95;;;19.40;63.80;;;;;;6102956;29;20047;-77
2022/10/27 08:42:16;;;;;;;26.45;4.05;;;19.50;63.40;;;;;;6116227;29;20084;-77
2022/10/27 08:45:28;;;;;;;20.63;4.57;;;19.60;63.10;;;;;;6102599;29;20044;-77
2022/10/27 08:48:32;;;;;;;20.48;4.30;;;19.80;62.40;;;;;;6092587;29;20039;-76
2022/10/27 08:51:34;;;;;;;24.33;4.63;;;19.80;61.80;;;;;;6071096;29;20175;-79
2022/10/27 08:54:36;;;;;;;13.55;4.45;;;19.90;61.40;;;;;;6102688;29;20044;-77
2022/10/27 08:57:39;;;;;;;13.63;4.25;;;19.90;61.20;;;;;;6100827;29;20062;-77
2022/10/27 09:01:14;;;;;;;17.08;4.45;;;19.90;60.60;;;;;;6085398;29;20048;-77
2022/10/27 09:04:24;;;;;;;19.38;4.40;;;20.00;60.40;;;;;;6031775;29;20164;-76
2022/10/27 09:07:44;;;;;;;20.58;4.13;;;20.00;60.30;;;;;;6014614;29;20116;-78
2022/10/27 09:11:03;;;;;;;11.40;4.38;;;20.20;60.20;;;;;;6010248;29;20037;-77
2022/10/27 09:14:26;;;;;;;19.85;4.15;;;20.30;59.70;;;;;;6011297;29;20440;-77
2022/10/27 09:17:41;;;;;;;13.98;3.63;;;20.30;59.30;;;;;;6015728;29;20163;-76
2022/10/27 09:20:52;;;;;;;17.45;4.13;;;20.40;59.30;;;;;;6039435;29;20037;-76
2022/10/27 09:24:00;;;;;;;9.45;3.45;;;20.40;59.00;;;;;;6036806;29;20171;-76
2022/10/27 09:27:03;;;;;;;22.05;4.18;;;20.50;58.70;;;;;;6035939;29;20449;-76
2022/10/27 09:30:05;;;;;;;18.30;4.20;;;20.60;58.50;;;;;;6041642;29;20060;-77
2022/10/27 09:33:18;;;;;;;11.52;3.92;;;20.70;58.40;;;;;;6041479;29;20078;-77
2022/10/27 09:36:22;;;;;;;12.88;3.92;;;20.80;58.40;;;;;;6008831;29;20537;-77
2022/10/27 09:39:23;;;;;;;14.18;4.03;;;21.00;58.00;;;;;;6019956;29;20037;-76
2022/10/27 09:42:25;;;;;;;12.35;3.70;;;21.00;57.50;;;;;;6096468;29;20373;-76
2022/10/27 09:45:27;;;;;;;12.73;3.33;;;21.10;57.00;;;;;;6108985;29;20036;-76
2022/10/27 09:48:29;;;;;;;23.20;4.10;;;21.20;56.50;;;;;;6101554;29;20043;-77
2022/10/27 09:51:51;;;;;;;11.80;3.30;;;21.30;56.40;;;;;;6103743;29;20389;-77
2022/10/27 09:54:54;;;;;;;16.67;3.60;;;21.30;56.10;;;;;;6080555;29;20036;-77
2022/10/27 09:58:02;;;;;;;10.82;3.63;;;21.50;55.60;;;;;;6101863;29;20462;-76
2022/10/27 10:01:04;;;;;;;19.92;3.80;;;21.60;55.30;;;;;;6101860;29;20068;-77
2022/10/27 10:04:15;;;;;;;30.98;3.85;;;21.90;54.80;;;;;;6101386;29;20039;-76
2022/10/27 10:07:35;;;;;;;13.95;3.08;;;22.10;54.40;;;;;;6117055;29;20060;-76
2022/10/27 10:10:36;;;;;;;15.30;3.75;;;22.40;53.80;;;;;;6098559;29;20044;-76
2022/10/27 10:13:38;;;;;;;13.45;4.65;;;22.70;53.60;;;;;;6095375;29;20036;-77
2022/10/27 10:16:43;;;;;;;10.65;3.30;;;22.90;53.30;;;;;;6095428;29;20044;-77
2022/10/27 10:19:46;;;;;;;13.85;5.05;;;23.10;52.70;;;;;;6104954;29;20051;-75
2022/10/27 10:22:49;;;;;;;10.93;3.10;;;23.30;52.30;;;;;;6099771;29;20370;-77
2022/10/27 10:25:52;;;;;;;17.35;3.83;;;23.40;52.10;;;;;;6109617;29;20456;-77
2022/10/27 10:29:12;;;;;;;10.75;3.40;;;23.70;51.60;;;;;;6116751;29;20050;-77
2022/10/27 10:32:34;;;;;;;8.95;3.55;;;23.90;51.10;;;;;;6117174;29;20166;-78
2022/10/27 10:35:43;;;;;;;10.55;3.40;;;24.10;51.20;;;;;;6117834;29;20044;-77
2022/10/27 10:38:50;;;;;;;8.50;3.20;;;24.30;50.10;;;;;;6109336;29;20056;-77
2022/10/27 10:42:12;;;;;;;20.03;3.20;;;24.50;49.50;;;;;;6102324;29;20126;-77
2022/10/27 10:45:26;;;;;;;17.00;3.60;;;24.80;49.00;;;;;;6097458;29;20028;-79
2022/10/27 10:48:48;;;;;;;9.45;3.20;;;25.00;48.60;;;;;;6101079;29;20095;-76
2022/10/27 10:51:57;;;;;;;10.85;2.85;;;25.20;47.60;;;;;;6099508;29;20044;-78
2022/10/27 10:55:06;;;;;;;14.40;3.58;;;25.40;47.00;;;;;;6091305;29;20383;-77
2022/10/27 10:58:16;;;;;;;16.00;3.70;;;25.70;46.50;;;;;;6102127;29;20103;-78
2022/10/27 11:01:17;;;;;;;12.40;2.80;;;26.00;45.80;;;;;;6082326;29;20505;-77
2022/10/27 11:04:30;;;;;;;9.18;3.17;;;26.40;45.20;;;;;;6096488;29;20090;-78
2022/10/27 11:07:32;;;;;;;9.07;2.92;;;26.80;44.60;;;;;;6089158;29;20032;-76
2022/10/27 11:10:37;;;;;;;19.35;3.17;;;27.20;43.70;;;;;;6098799;29;20056;-77
2022/10/27 11:13:54;;;;;;;11.02;3.17;;;27.70;43.20;;;;;;6087170;29;20123;-77
2022/10/27 11:17:01;;;;;;;12.30;2.97;;;28.00;42.30;;;;;;6094183;29;20378;-77
2022/10/27 11:20:06;;;;;;;20.63;2.95;;;28.40;41.60;;;;;;6103990;29;20041;-77
2022/10/27 11:23:40;;;;;;;15.07;3.00;;;28.80;40.80;;;;;;6097419;29;20036;-77
2022/10/27 11:26:58;;;;;;;8.57;2.67;;;29.20;40.30;;;;;;6060427;29;20062;-77
2022/10/27 11:30:15;;;;;;;8.75;2.75;;;29.60;39.60;;;;;;6079198;29;20346;-77
2022/10/27 11:33:29;;;;;;;18.58;3.58;;;30.00;39.30;;;;;;6092504;29;20048;-78
2022/10/27 11:36:38;;;;;;;8.32;3.00;;;30.30;38.70;;;;;;6112045;29;20043;-76
2022/10/27 11:39:44;;;;;;;14.65;2.78;;;30.50;37.90;;;;;;6100249;29;20056;-76
2022/10/27 11:42:59;;;;;;;11.50;2.92;;;30.50;36.80;;;;;;6113777;29;20070;-76
2022/10/27 11:46:03;;;;;;;12.48;3.40;;;30.50;37.00;;;;;;6110449;29;20032;-78
2022/10/27 11:49:38;;;;;;;16.52;3.40;;;30.50;36.50;;;;;;6103631;29;20052;-77
2022/10/27 11:52:46;;;;;;;10.00;2.97;;;30.40;37.10;;;;;;6000856;29;20105;-77
2022/10/27 11:55:56;;;;;;;6.53;2.42;;;30.20;36.80;;;;;;6011744;29;20048;-77
2022/10/27 11:59:38;;;;;;;14.10;3.45;;;30.30;36.30;;;;;;6014726;29;20194;-76
2022/10/27 12:02:42;;;;;;;11.13;3.25;;;30.30;35.70;;;;;;5914918;29;20051;-78
2022/10/27 12:05:49;;;;;;;35.63;4.18;;;29.90;36.10;;;;;;5913293;29;20044;-76
2022/10/27 12:09:27;;;;;;;18.05;2.88;;;29.80;36.50;;;;;;5912340;29;20047;-75
2022/10/27 12:12:36;;;;;;;14.83;3.30;;;29.80;36.40;;;;;;5906729;29;20478;-75
2022/10/27 12:15:52;;;;;;;12.40;2.58;;;29.80;36.20;;;;;;5913128;29;20066;-76
2022/10/27 12:19:10;;;;;;;14.00;2.95;;;29.60;36.20;;;;;;5928411;29;20430;-77
2022/10/27 12:22:29;;;;;;;22.67;2.97;;;29.40;36.50;;;;;;5923754;29;20171;-78
2022/10/27 12:25:42;;;;;;;20.92;3.00;;;29.30;36.70;;;;;;5899808;29;20100;-76
2022/10/27 12:28:44;;;;;;;18.52;5.45;;;29.10;36.90;;;;;;5944349;29;20049;-77
2022/10/27 12:31:58;;;;;;;16.08;2.95;;;29.00;37.20;;;;;;5963359;29;20038;-78
2022/10/27 12:35:10;;;;;;;10.65;3.05;;;28.80;37.30;;;;;;5969794;29;20049;-77
2022/10/27 12:38:25;;;;;;;17.30;2.95;;;28.70;37.60;;;;;;5995224;29;20032;-77
2022/10/27 12:41:30;;;;;;;10.50;2.40;;;28.50;38.00;;;;;;6084386;29;20052;-78
2022/10/27 12:44:59;;;;;;;9.18;3.80;;;28.50;38.30;;;;;;6092790;29;20414;-78
2022/10/27 12:48:20;;;;;;;19.48;2.95;;;28.40;38.50;;;;;;6101993;29;20174;-77
2022/10/27 12:51:40;;;;;;;11.45;3.13;;;28.30;38.70;;;;;;6111755;29;20028;-77
2022/10/27 12:54:48;;;;;;;12.70;2.70;;;28.20;38.80;;;;;;6106185;29;20054;-76
2022/10/27 12:58:02;;;;;;;12.27;3.55;;;28.10;39.10;;;;;;6099644;29;21644;-78
2022/10/27 13:01:37;;;;;;;21.15;3.00;;;28.00;39.20;;;;;;6100251;29;20135;-82
2022/10/27 13:04:54;;;;;;;11.30;2.80;;;27.80;39.50;;;;;;6100639;29;20031;-77
2022/10/27 13:08:17;;;;;;;7.72;2.33;;;27.70;39.60;;;;;;6098773;29;20326;-79
2022/10/27 13:11:21;;;;;;;16.02;2.88;;;27.60;39.80;;;;;;6113822;29;20462;-74
2022/10/27 13:15:03;;;;;;;11.13;3.00;;;27.60;39.80;;;;;;6104463;29;20024;-76
2022/10/27 13:18:15;;;;;;;6.40;2.90;;;27.60;39.90;;;;;;6099774;29;20048;-77
2022/10/27 13:21:43;;;;;;;11.18;2.83;;;27.60;39.80;;;;;;6095988;29;20386;-78
2022/10/27 13:25:02;;;;;;;13.00;2.90;;;27.50;39.80;;;;;;6105527;29;20035;-76
2022/10/27 13:28:16;;;;;;;20.40;3.28;;;27.40;39.80;;;;;;6093616;29;20375;-77
2022/10/27 13:31:21;;;;;;;14.65;3.00;;;27.30;40.10;;;;;;6097305;29;20068;-78
2022/10/27 13:34:22;;;;;;;18.33;3.53;;;27.20;40.20;;;;;;6089906;29;20043;-76
2022/10/27 13:37:43;;;;;;;14.00;3.15;;;27.10;40.40;;;;;;6071284;29;20036;-77
2022/10/27 13:40:44;;;;;;;6.65;2.60;;;27.00;40.60;;;;;;6098501;29;20418;-77
2022/10/27 13:43:45;;;;;;;27.55;3.20;;;27.00;40.80;;;;;;6098525;29;20167;-77
2022/10/27 13:47:02;;;;;;;20.83;3.30;;;27.00;40.90;;;;;;6095682;29;20064;-78
2022/10/27 13:50:03;;;;;;;16.60;2.92;;;26.90;41.00;;;;;;6106026;29;20028;-77
2022/10/27 13:53:26;;;;;;;16.80;2.97;;;26.80;41.00;;;;;;6097695;29;20359;-77
2022/10/27 13:56:37;;;;;;;14.48;2.88;;;26.70;41.40;;;;;;6087650;29;20119;-76
2022/10/27 13:59:38;;;;;;;9.65;2.65;;;26.60;41.50;;;;;;6094622;29;20039;-76
2022/10/27 14:03:02;;;;;;;17.33;2.92;;;26.60;41.70;;;;;;6092193;29;20322;-76
2022/10/27 14:06:09;;;;;;;11.35;2.92;;;26.50;42.00;;;;;;6091906;29;20028;-76
2022/10/27 14:09:29;;;;;;;15.50;3.20;;;26.50;42.10;;;;;;6095847;29;20034;-77
2022/10/27 14:12:35;;;;;;;13.73;3.30;;;26.50;42.20;;;;;;6091396;29;20056;-76
2022/10/27 14:15:36;;;;;;;6.30;3.22;;;26.40;42.40;;;;;;6098733;29;20052;-76
2022/10/27 14:18:37;;;;;;;10.18;2.90;;;26.40;42.50;;;;;;6113519;29;20489;-76
2022/10/27 14:21:48;;;;;;;16.58;3.15;;;26.40;42.60;;;;;;6096710;29;20462;-77
2022/10/27 14:24:51;;;;;;;15.43;3.20;;;26.30;42.70;;;;;;6072909;29;20390;-76
2022/10/27 14:28:02;;;;;;;17.92;3.17;;;26.30;42.70;;;;;;6104925;29;20107;-76
2022/10/27 14:31:17;;;;;;;8.68;2.78;;;26.30;42.80;;;;;;6091346;29;20048;-76
2022/10/27 14:34:23;;;;;;;14.07;3.03;;;26.20;42.90;;;;;;6098504;29;20052;-75
2022/10/27 14:37:34;;;;;;;15.25;2.92;;;26.20;42.90;;;;;;6100348;29;20032;-76
2022/10/27 14:40:38;;;;;;;15.73;3.47;;;26.20;43.00;;;;;;6098322;29;20031;-75
2022/10/27 14:43:41;;;;;;;13.82;2.95;;;26.10;43.10;;;;;;6098575;29;20044;-76
2022/10/27 14:46:45;;;;;;;12.73;2.75;;;26.10;43.20;;;;;;6093769;29;20559;-76
2022/10/27 14:50:12;;;;;;;14.57;3.47;;;26.10;43.30;;;;;;6088839;29;20032;-76
2022/10/27 14:53:24;;;;;;;25.55;4.07;;;26.00;43.40;;;;;;6075492;29;20064;-76
2022/10/27 14:56:27;;;;;;;12.23;2.90;;;26.00;43.50;;;;;;6086022;29;20047;-77
2022/10/27 14:59:28;;;;;;;18.02;5.68;;;26.00;43.60;;;;;;6080579;29;20028;-75
2022/10/27 15:02:30;;;;;;;12.63;3.38;;;25.90;43.70;;;;;;6098586;29;20048;-76
2022/10/27 15:05:35;;;;;;;16.05;2.80;;;25.90;43.80;;;;;;6093481;29;20037;-75
2022/10/27 15:08:37;;;;;;;14.35;2.78;;;25.90;44.00;;;;;;6099874;29;20044;-77
2022/10/27 15:11:38;;;;;;;19.30;4.18;;;25.80;44.00;;;;;;6096872;29;20047;-76
2022/10/27 15:14:39;;;;;;;13.25;2.95;;;25.80;44.10;;;;;;6096947;29;20071;-77
2022/10/27 15:17:41;;;;;;;10.68;2.97;;;25.70;44.20;;;;;;6095882;29;20047;-77
2022/10/27 15:20:42;;;;;;;25.10;3.53;;;25.70;44.30;;;;;;6092343;29;20073;-78
2022/10/27 15:23:45;;;;;;;12.73;3.05;;;25.60;44.40;;;;;;6111950;29;20145;-77
2022/10/27 15:26:47;;;;;;;16.27;3.25;;;25.60;44.50;;;;;;6093449;29;20076;-76
2022/10/27 15:29:50;;;;;;;8.23;2.90;;;25.60;44.60;;;;;;6096349;29;20028;-76
2022/10/27 15:32:51;;;;;;;13.05;3.25;;;25.50;44.60;;;;;;6094059;29;20124;-78
2022/10/27 15:36:08;;;;;;;11.27;2.72;;;25.50;44.80;;;;;;6089467;29;20032;-75
2022/10/27 15:39:10;;;;;;;8.55;3.15;;;25.40;44.80;;;;;;6117745;29;20038;-75
2022/10/27 15:42:18;;;;;;;8.90;2.85;;;25.40;44.90;;;;;;6096436;29;20483;-76
2022/10/27 15:45:34;;;;;;;12.23;3.33;;;25.30;44.90;;;;;;6098726;29;20579;-77
2022/10/27 15:48:37;;;;;;;15.05;5.22;;;25.30;45.00;;;;;;6098223;29;20043;-76
2022/10/27 15:51:58;;;;;;;13.40;4.90;;;25.20;45.00;;;;;;6101676;29;20043;-77
2022/10/27 15:55:03;;;;;;;12.48;3.85;;;25.10;45.20;;;;;;6099846;29;20043;-75
2022/10/27 15:58:36;;;;;;;18.25;5.63;;;25.10;45.30;;;;;;6096309;29;20040;-77
2022/10/27 16:01:36;;;;;;;16.40;4.43;;;25.00;45.60;;;;;;6091793;29;20044;-77